Biograd, Croatia
Current Conditions -  °F | °C
As of 11:30 AM on Friday 24 Oct 2014 (Local Time) from LDZD Reporting Station
Few Clouds Few Clouds  
Wind Chill: 57°   Ceiling: Unl
Heat Index: 57°   Visibility: 6mi
Dew Point: 39°   Wind: 6mph
Humidity: 51%   Direction: 290°WNW
Pressure: 29.88"   Gusts: NA
Location:  43.94°N, 15.45°E
Report Text: LDZD 241030Z 29005KT 200V320 9999 FEW040 14/04 Q1012 NOSIG
Loading
Personal Weather Stations






























Interactive Weather Map
Tropical Storm Tracking
New forecast layout! Learn more

10-Day Weather Forecast

Advertisements
Track Severe Weather on mobile